Hlavní strana
METAR-TAF:

METAR-TAF

Letiště :

Jakutsk, Rusko

zeměpisná šířka: 62-01N, zeměpisná délka: 129-43E, výška: 103 m

Aktuální stav počasí

Zpráva byla vytvořena před 45 minutami, v 23:00 UTC
Jižní vítr 4 kt
Teplota -5°C
Vlhkost vzduchu 93%
Tlak 1028 hPa
Viditelnost 10 km a více
Polojasno ve výšce 1000 ft
Zataženo ve výšce 1600 ft, Cumulonimbus.

METAR: UEEE 152300Z 19002MPS 9999 SCT010 OVC016CB M05/M06 Q1028 R23L/490050 NOSIG RMK QFE762

Čas: 08:45 (23:45 UTC)

Předpověď počasí

Zpráva byla vytvořena před 45 minutami, v 23:00 UTC
Předpověď platná od 16 v 00 UTC do 17 v 06 UTC
Jižní vítr 6 kt
Viditelnost 10 km a více
Polojasno ve výšce 1000 ft
Oblačno až skoro zataženo ve výšce 1400 ft, Cumulonimbus.
Zataženo ve výšce 7000 ft
Dočasný
od 16 v 00 UTC do 16 v 12 UTC
Viditelnost: 4000 m
slabé sněhové přeháňky, déšť

TAF: UEEE 152300Z 1600/1706 17003MPS 9999 SCT010 BKN014CB OVC070 TEMPO 1600/1612 4000 -SHSNRA

Stav a předpovědi počasí z více než 4 000 letišť (zprávy METAR a TAF).

Červené a žluté tečky na mapě představují dostupné meteorologické stanice.

Když kurzor umístíte na tečku, zobrazí se název stanice.

Pak kliknutím zobrazíte stav a předpověď počasí.

Chcete-li změnit mapu, kliknutím na zelené tlačítko se znaménkem +mapu přiblížíte, kliknutím na zelené tlačítko se znaménkem – mapu oddálíte a kliknutím na zelené šipky přejdete na sousední mapy.


METAR-TAF: